Airfield :
LOGIN :

Register | Disclaimer

   EN    FR    IT 

 










Legend :    VFR   Marginal VFR   IFR   Intensive IFR   Very Intensive IFR
Visi :
Ceiling :
>= 8 km
>= 3000ft
5 to 8 km
1000 to 3000 ft
1500m to 5 km
500 to 1000 ft
800 to 1500m
200 to 500 ft
< 800m
< 200 ft
Symbols :   Thunderstorms  Fog  Heavy snow  Heavy precipitations  Wind > 20 kt
SIGMETs :     Misc.  Thunderstorms  Icing  Turbulence  Mountain Waves  Volcanic Ashes







- Airport Elevation : 375 ft
- IATA code : MST


EHBK - Maastricht Aachen

CURRENT METAR :
  • 240655Z AUTO 20011KT 9999 FEW006 SCT008 BKN009 13/12 Q1021 TEMPO 2500 -DZ BKN004

EXPIRED METARs :
  • 240625Z AUTO 21011KT 9999 SCT006 BKN008 OVC009 13/12 Q1021 TEMPO 2500 -DZ BKN004
  • 240555Z AUTO 20011KT 9999 BKN007 OVC008 13/12 Q1021 TEMPO 4000 -DZ BKN004
  • 240525Z AUTO 21010KT 9999 BKN007 OVC008 13/12 Q1021 TEMPO 4000 -DZ BKN004
  • 240455Z AUTO 20011KT 9999 FEW006 OVC007 12/12 Q1021 TEMPO 4000 -DZ BKN004
  • 240425Z AUTO 20010KT 9999 FEW004 SCT006 OVC007 12/12 Q1021 TEMPO 4000 -DZ BKN004

TAF TAF EHBK
Valid from the 24 at 06:00 until the 25 at 12:00 UTC


240456Z 2406/2512 20010KT 9999 BKN007
TEMPO 2406/2418 4000 -DZ BR BKN004
BECMG 2417/2420 23012KT BKN015
PROB30 2418/2505 4000 BR -DZ BKN008
No reported NOTAMs for that airfield.
1 SIGMET reported for the Amsterdam FIR (EHAA) :
 
Severe turbulence
EHAA SIGMET 1 VALID 240500/240800 EHDB
EHAA AMSTERDAM FIR SEV TURB OBS AT 0500Z NE OF LINE N5312 E00323 - N5203 E00640 FL380/390 MOV E 30KT NC=



MET'MAP, your aeronautical weather chart ! - Copyright ORBIFLY December 2007 - Disclaimer

ORBIFLY MET'MAP TEAM :

Programming & Development : Alexandra Zaïnal
Concept & Development : Baudouin d'Aumeries
Co-Development & Prog : Marc-Olivier Méhu
Technical & hardware support : Manuel Goepfert

Contact : metmap@orbifly.com




SOURCES & CREDITS :

   NOAA